Estación de Las Viñas

Ultimos registro cada 15 minutos 68
Estación Fecha / Hora Temperatura Humedad Lluvia Velocidad Dirección Radiación Presion
68 Las Viñas 08-05-2026 16:45 10,8 84 0 0 141 7 1022,6
67 Las Viñas 08-05-2026 16:30 10,8 84 0 0 166 79 1022,1
66 Las Viñas 08-05-2026 16:15 10,8 86 0,4 0 168 72 1022,1
65 Las Viñas 08-05-2026 16:00 11 87 0 0 347 35 1021,8
64 Las Viñas 08-05-2026 15:45 11 87 0 0 347 35 1021,8
63 Las Viñas 08-05-2026 15:30 11,1 87 0 0 347 30 1021,9
62 Las Viñas 08-05-2026 15:15 11,1 87 0 0 347 44 1021,7
61 Las Viñas 08-05-2026 15:00 10,9 86 0 0 347 120 1021,5
60 Las Viñas 08-05-2026 14:45 10,8 87 0 0 347 174 1021,6
59 Las Viñas 08-05-2026 14:30 10,8 87 0 0,4 16 84 1021,4
58 Las Viñas 08-05-2026 14:15 10,7 87 0 0,4 22 162 1021,4
57 Las Viñas 08-05-2026 14:00 10,5 86 0 0,4 2 211 1021,6
56 Las Viñas 08-05-2026 13:45 10,4 85 0 0 347 229 1021,6
55 Las Viñas 08-05-2026 13:30 10,2 85 0 0,4 333 158 1021,9
54 Las Viñas 08-05-2026 13:15 10,1 83 0 0,4 299 169 1021,8
53 Las Viñas 08-05-2026 13:00 9,8 83 0 0,4 14 192 1021,6
52 Las Viñas 08-05-2026 12:45 9,6 82 0 0,4 341 102 1022
51 Las Viñas 08-05-2026 12:30 9,4 81 0 0,9 314 107 1022,2
50 Las Viñas 08-05-2026 12:15 9,3 80 0 0 345 67 1022,2
49 Las Viñas 08-05-2026 12:00 9,2 79 0 0,9 13 90 1022,2
48 Las Viñas 08-05-2026 11:45 8,9 78 0 0,4 2 67 1022,3
47 Las Viñas 08-05-2026 11:30 8,8 78 0 1,3 2 65 1022,6
46 Las Viñas 08-05-2026 11:15 8,7 79 0 0 5 54 1022,5
45 Las Viñas 08-05-2026 11:00 8,6 79 0 0 5 46 1022,7
44 Las Viñas 08-05-2026 10:45 8,3 79 0 0,9 7 77 1022,7
43 Las Viñas 08-05-2026 10:30 8,3 79 0 0 310 53 1022,8
42 Las Viñas 08-05-2026 10:15 8,2 79 0 0,4 21 51 1022,7
41 Las Viñas 08-05-2026 10:00 8 80 0 0,9 354 93 1022,8
40 Las Viñas 08-05-2026 09:45 7,9 81 0 0 6 56 1022,9
39 Las Viñas 08-05-2026 09:30 7,8 81 0,2 1,8 4 90 1022,6
38 Las Viñas 08-05-2026 09:15 7,7 82 0 1,3 5 32 1023
37 Las Viñas 08-05-2026 09:00 7,7 82 0 0,4 1 39 1022,6
36 Las Viñas 08-05-2026 08:45 7,7 82 0 0,9 351 42 1022,6
35 Las Viñas 08-05-2026 08:30 7,6 82 0 0,9 16 32 1022,5
34 Las Viñas 08-05-2026 08:15 7,6 83 0 0,4 357 33 1022,5
33 Las Viñas 08-05-2026 08:00 7,4 84 0,2 1,3 360 18 1022,2
32 Las Viñas 08-05-2026 07:45 7,4 84 0,2 0 328 0 1022,1
31 Las Viñas 08-05-2026 07:30 7,4 85 0,4 0 328 0 1022,3
30 Las Viñas 08-05-2026 07:15 7,4 85 0,2 0 328 0 1022,1
29 Las Viñas 08-05-2026 07:00 7,4 85 0 0,4 328 0 1021,8
28 Las Viñas 08-05-2026 06:45 7,4 85 0 0,4 358 0 1021,6
27 Las Viñas 08-05-2026 06:30 7,4 85 0 0 9 0 1021,7
26 Las Viñas 08-05-2026 06:15 7,5 85 0 0,4 10 0 1021,8
25 Las Viñas 08-05-2026 06:00 7,6 85 0,2 0,4 39 0 1022,1
24 Las Viñas 08-05-2026 05:45 7,7 85 0,4 0,4 358 0 1022,2
23 Las Viñas 08-05-2026 05:30 7,7 86 0 0 357 0 1022,4
22 Las Viñas 08-05-2026 05:15 7,7 86 0 0 360 0 1022,1
21 Las Viñas 08-05-2026 05:00 7,7 86 0 0 8 0 1022,3
20 Las Viñas 08-05-2026 04:45 7,8 87 0 0 41 0 1022,3
19 Las Viñas 08-05-2026 04:30 7,9 87 0,2 0 6 0 1022,5
18 Las Viñas 08-05-2026 04:15 7,9 88 0 0 10 0 1023,1
17 Las Viñas 08-05-2026 04:00 8,1 89 0 0 10 0 1022,9
16 Las Viñas 08-05-2026 03:45 8,3 89 0,2 0 345 0 1023
15 Las Viñas 08-05-2026 03:30 8,2 89 0 0 16 0 1023,3
14 Las Viñas 08-05-2026 03:15 8,2 89 0 0,4 22 0 1023,3
13 Las Viñas 08-05-2026 03:00 8,2 89 0 0 28 0 1023,5
12 Las Viñas 08-05-2026 02:45 8,3 89 0 0 349 0 1023,5
11 Las Viñas 08-05-2026 02:30 8,4 89 0 0 37 0 1023,6
10 Las Viñas 08-05-2026 02:15 8,3 89 0 0,9 360 0 1024
9 Las Viñas 08-05-2026 02:00 8,3 89 0 0 348 0 1023,9
8 Las Viñas 08-05-2026 01:45 8,3 89 0 0 12 0 1024
7 Las Viñas 08-05-2026 01:30 8,3 89 0 0 10 0 1024,2
6 Las Viñas 08-05-2026 01:15 8,4 89 0 0 2 0 1024,7
5 Las Viñas 08-05-2026 01:00 8,4 89 0 0 2 0 1025,3
4 Las Viñas 08-05-2026 00:45 8,4 89 0 0 12 0 1025
3 Las Viñas 08-05-2026 00:30 8,4 89 0 1,3 21 0 1025,1
2 Las Viñas 08-05-2026 00:15 8,4 89 0 0 345 0 1025,6
1 Las Viñas 08-05-2026 00:00 8,4 89 0 0,4 329 0 1025,4